createdAt,value
2023-02-11T00:01:27.394Z,41.80
2023-02-11T00:03:55.141Z,42.40
2023-02-11T00:06:22.568Z,38.40
2023-02-11T00:08:49.496Z,39.60
2023-02-11T00:11:18.437Z,36.40
2023-02-11T00:13:46.722Z,34.50
2023-02-11T00:16:16.927Z,31.90
2023-02-11T00:18:44.147Z,35.30
2023-02-11T00:21:16.504Z,37.30
2023-02-11T00:23:44.082Z,33.70
2023-02-11T00:26:21.449Z,35.90
2023-02-11T00:28:49.944Z,40.50
2023-02-11T00:31:18.900Z,40.10
2023-02-11T00:33:46.577Z,37.60
2023-02-11T00:36:22.911Z,35.90
2023-02-11T00:38:51.998Z,38.50
2023-02-11T00:41:20.143Z,36.20
2023-02-11T00:43:47.706Z,35.00
2023-02-11T00:46:15.134Z,36.80
2023-02-11T00:48:42.202Z,34.30
2023-02-11T00:51:09.961Z,31.30
2023-02-11T00:53:37.697Z,35.90
2023-02-11T00:56:05.047Z,27.90
2023-02-11T00:58:31.769Z,31.50
2023-02-11T01:00:59.059Z,29.30
2023-02-11T01:03:26.189Z,28.50
2023-02-11T01:05:53.443Z,32.50
2023-02-11T01:08:20.291Z,33.30
2023-02-11T01:10:55.991Z,28.20
2023-02-11T01:13:22.975Z,33.50
2023-02-11T01:15:50.267Z,26.80
2023-02-11T01:18:17.580Z,29.60
2023-02-11T01:20:44.632Z,31.50
2023-02-11T01:23:11.702Z,31.90
2023-02-11T01:25:38.522Z,33.80
2023-02-11T01:28:05.725Z,31.90
2023-02-11T01:30:32.584Z,34.80
2023-02-11T01:32:59.410Z,31.00
2023-02-11T01:35:26.113Z,32.30
2023-02-11T01:37:52.934Z,33.90
2023-02-11T01:40:19.786Z,32.50
2023-02-11T01:42:49.404Z,32.50
2023-02-11T01:45:46.713Z,36.70
2023-02-11T01:48:18.196Z,38.00
2023-02-11T01:50:48.417Z,36.20
2023-02-11T01:53:31.536Z,34.70
2023-02-11T01:56:13.283Z,36.20
2023-02-11T01:58:42.496Z,33.20
2023-02-11T02:01:13.147Z,34.70
2023-02-11T02:03:43.966Z,29.40
2023-02-11T02:06:15.474Z,38.60
2023-02-11T02:08:57.123Z,37.20
2023-02-11T02:11:23.981Z,42.10
2023-02-11T02:13:50.910Z,33.80
2023-02-11T02:16:21.517Z,29.10
2023-02-11T02:19:03.472Z,30.20
2023-02-11T02:22:00.120Z,27.00
2023-02-11T02:24:48.874Z,24.70
2023-02-11T02:27:29.543Z,26.90
2023-02-11T02:30:01.963Z,28.20
2023-02-11T02:32:52.475Z,28.30
2023-02-11T02:35:57.912Z,25.70
2023-02-11T02:38:44.218Z,24.10
2023-02-11T02:41:14.271Z,27.90
2023-02-11T02:43:45.264Z,36.00
2023-02-11T02:46:13.160Z,28.70
2023-02-11T02:48:40.000Z,32.50
2023-02-11T02:51:29.647Z,31.10
2023-02-11T02:54:23.819Z,29.10
2023-02-11T02:57:13.416Z,26.00
2023-02-11T02:59:53.027Z,28.20
2023-02-11T03:02:40.515Z,30.30
2023-02-11T03:05:19.636Z,30.60
2023-02-11T03:08:00.040Z,35.20
2023-02-11T03:10:31.713Z,25.30
2023-02-11T03:12:59.905Z,30.50
2023-02-11T03:15:30.827Z,38.30
2023-02-11T03:18:00.747Z,35.20
2023-02-11T03:22:57.085Z,37.20
2023-02-11T03:25:30.506Z,38.80
2023-02-11T03:28:14.542Z,36.80
2023-02-11T03:31:09.596Z,32.20
2023-02-11T03:33:52.122Z,25.80
2023-02-11T03:36:24.526Z,29.80
2023-02-11T03:38:56.526Z,26.60
2023-02-11T03:41:24.997Z,29.90
2023-02-11T03:43:56.249Z,26.90
2023-02-11T03:46:37.702Z,23.70
2023-02-11T03:49:09.824Z,28.30
2023-02-11T03:51:37.816Z,29.60
2023-02-11T03:54:10.607Z,27.00
2023-02-11T03:56:44.173Z,26.90
2023-02-11T03:59:10.874Z,27.40
2023-02-11T04:01:37.601Z,29.00
2023-02-11T04:04:04.673Z,34.80
2023-02-11T04:06:31.417Z,27.10
2023-02-11T04:08:58.098Z,27.40
2023-02-11T04:11:24.955Z,27.60
2023-02-11T04:13:51.665Z,28.40
2023-02-11T04:16:18.397Z,29.70
2023-02-11T04:18:45.218Z,24.50
2023-02-11T04:21:12.825Z,27.70
2023-02-11T04:23:39.533Z,29.70
2023-02-11T04:26:06.786Z,29.40
2023-02-11T04:28:35.033Z,26.50
2023-02-11T04:31:02.116Z,31.30
2023-02-11T04:33:29.362Z,23.50
2023-02-11T04:35:56.104Z,27.30
2023-02-11T04:38:24.332Z,24.80
2023-02-11T04:40:51.704Z,22.80
2023-02-11T04:43:18.494Z,27.30
2023-02-11T04:45:45.246Z,24.70
2023-02-11T04:48:12.016Z,26.60
2023-02-11T04:50:38.766Z,24.80
2023-02-11T04:53:05.483Z,24.60
2023-02-11T04:55:32.285Z,23.10
2023-02-11T04:57:59.003Z,19.30
2023-02-11T05:00:25.702Z,24.60
2023-02-11T05:02:52.406Z,23.00
2023-02-11T05:05:19.240Z,23.60
2023-02-11T05:07:46.065Z,27.70
2023-02-11T05:10:12.709Z,20.20
2023-02-11T05:12:39.571Z,24.40
2023-02-11T05:15:06.645Z,23.50
2023-02-11T05:17:33.628Z,22.70
2023-02-11T05:20:00.407Z,21.40
2023-02-11T05:22:27.174Z,20.50
2023-02-11T05:24:54.421Z,22.40
2023-02-11T05:27:21.119Z,24.60
2023-02-11T05:29:47.812Z,21.30
2023-02-11T05:32:14.659Z,22.10
2023-02-11T05:34:41.363Z,23.70
2023-02-11T05:37:08.178Z,22.60
2023-02-11T05:39:35.295Z,18.40
2023-02-11T05:42:02.057Z,19.30
2023-02-11T05:44:28.748Z,20.90
2023-02-11T05:46:55.505Z,20.30
2023-02-11T05:49:22.248Z,22.30
2023-02-11T05:51:49.458Z,18.50
2023-02-11T05:54:16.904Z,20.50
2023-02-11T05:56:44.900Z,20.90
2023-02-11T05:59:14.603Z,20.40
2023-02-11T06:01:42.087Z,21.20
2023-02-11T06:04:09.021Z,19.80
2023-02-11T06:06:35.831Z,21.00
2023-02-11T06:09:03.152Z,18.90
2023-02-11T06:11:29.870Z,23.70
2023-02-11T06:13:56.731Z,21.90
2023-02-11T06:16:23.537Z,20.90
2023-02-11T06:18:50.260Z,23.50
2023-02-11T06:21:17.132Z,21.80
2023-02-11T06:23:44.144Z,25.20
2023-02-11T06:26:17.817Z,21.70
2023-02-11T06:28:44.758Z,21.70
2023-02-11T06:31:12.353Z,21.50
2023-02-11T06:33:39.424Z,30.30
2023-02-11T06:36:14.378Z,25.80
2023-02-11T06:38:41.226Z,26.00
2023-02-11T06:41:13.569Z,25.90
2023-02-11T06:43:41.354Z,24.20
2023-02-11T06:46:08.433Z,21.50
2023-02-11T06:48:36.168Z,20.90
2023-02-11T06:51:05.319Z,21.90
2023-02-11T06:53:35.547Z,21.80
2023-02-11T06:56:07.676Z,21.80
2023-02-11T06:58:34.485Z,23.70
2023-02-11T07:01:06.814Z,22.30
2023-02-11T07:03:38.683Z,22.10
2023-02-11T07:06:08.160Z,19.10
2023-02-11T07:08:36.976Z,20.90
2023-02-11T07:11:17.659Z,19.80
2023-02-11T07:13:44.368Z,17.60
2023-02-11T07:16:14.748Z,20.60
2023-02-11T07:18:42.148Z,20.20
2023-02-11T07:21:11.183Z,21.60
2023-02-11T07:23:39.653Z,25.40
2023-02-11T07:26:12.690Z,19.60
2023-02-11T07:28:40.601Z,22.90
2023-02-11T07:31:13.493Z,22.20
2023-02-11T07:33:40.994Z,22.30
2023-02-11T07:36:10.267Z,21.10
2023-02-11T07:38:37.655Z,19.10
2023-02-11T07:41:07.533Z,22.40
2023-02-11T07:46:09.779Z,21.00
2023-02-11T07:48:36.597Z,22.10
2023-02-11T07:51:08.496Z,17.60
2023-02-11T07:53:35.261Z,22.60
2023-02-11T07:56:04.203Z,21.50
2023-02-11T07:58:31.425Z,24.00
2023-02-11T08:01:02.965Z,22.90
2023-02-11T08:03:30.256Z,21.10
2023-02-11T08:05:57.012Z,19.80
2023-02-11T08:08:27.905Z,24.80
2023-02-11T08:10:54.753Z,22.70
2023-02-11T08:13:21.531Z,23.90
2023-02-11T08:15:48.795Z,23.60
2023-02-11T08:18:15.721Z,22.90
2023-02-11T08:20:42.458Z,24.60
2023-02-11T08:23:09.498Z,23.00
2023-02-11T08:25:36.324Z,25.50
2023-02-11T08:28:03.103Z,21.10
2023-02-11T08:30:29.946Z,23.60
2023-02-11T08:32:56.808Z,22.80
2023-02-11T08:35:23.877Z,23.10
2023-02-11T08:37:50.682Z,21.80
2023-02-11T08:40:17.546Z,24.50
2023-02-11T08:42:44.354Z,20.80
2023-02-11T08:45:12.666Z,22.70
2023-02-11T08:47:40.073Z,23.10
2023-02-11T08:50:07.113Z,22.60
2023-02-11T08:52:33.868Z,23.80
2023-02-11T08:55:00.700Z,24.70
2023-02-11T08:57:27.871Z,23.60
2023-02-11T08:59:54.628Z,20.80
2023-02-11T09:02:21.484Z,23.00
2023-02-11T09:04:48.250Z,21.40
2023-02-11T09:07:14.940Z,22.50
2023-02-11T09:09:41.705Z,21.40
2023-02-11T09:12:08.423Z,20.90
2023-02-11T09:14:35.322Z,20.90
2023-02-11T09:17:02.233Z,21.90
2023-02-11T09:19:29.012Z,25.10
2023-02-11T09:21:55.809Z,20.00
2023-02-11T09:24:22.604Z,21.60
2023-02-11T09:26:49.805Z,22.10
2023-02-11T09:29:16.838Z,21.00
2023-02-11T09:31:43.826Z,20.30
2023-02-11T09:34:11.722Z,20.50
2023-02-11T09:36:41.281Z,19.00
2023-02-11T09:39:17.432Z,22.90
2023-02-11T09:42:04.390Z,18.70
2023-02-11T09:44:36.518Z,20.30
2023-02-11T09:47:07.790Z,21.10
2023-02-11T09:49:44.398Z,23.80
2023-02-11T09:52:28.837Z,19.40
2023-02-11T09:54:58.581Z,22.00
2023-02-11T09:57:43.696Z,20.40
2023-02-11T10:00:42.703Z,22.80
2023-02-11T10:03:49.112Z,23.10
2023-02-11T10:06:29.864Z,24.50
2023-02-11T10:09:05.513Z,21.00
2023-02-11T10:11:42.366Z,23.40
2023-02-11T10:14:25.783Z,24.20
2023-02-11T10:17:21.846Z,24.50
2023-02-11T10:20:20.684Z,24.20
2023-02-11T10:22:50.589Z,23.50
2023-02-11T10:27:55.616Z,20.40
2023-02-11T10:30:26.612Z,21.60
2023-02-11T10:33:02.487Z,22.00
2023-02-11T10:35:29.235Z,21.40
2023-02-11T10:37:56.345Z,22.70
2023-02-11T10:40:26.038Z,21.70
2023-02-11T10:42:56.291Z,22.60
2023-02-11T10:45:25.827Z,18.20
2023-02-11T10:47:53.414Z,26.40
2023-02-11T10:50:24.878Z,20.90
2023-02-11T10:52:51.847Z,20.70
2023-02-11T10:55:18.769Z,24.30
2023-02-11T10:57:58.061Z,21.90
2023-02-11T11:00:34.263Z,23.50
2023-02-11T11:03:01.992Z,22.10
2023-02-11T11:05:35.726Z,21.00
2023-02-11T11:08:06.653Z,23.20
2023-02-11T11:10:43.549Z,22.20
2023-02-11T11:13:24.239Z,20.90
2023-02-11T11:16:15.383Z,22.90
2023-02-11T11:18:44.967Z,22.00
2023-02-11T11:21:33.716Z,23.60
2023-02-11T11:24:03.464Z,25.60
2023-02-11T11:26:43.468Z,24.90
2023-02-11T11:29:27.040Z,21.10
2023-02-11T11:31:58.138Z,25.50
2023-02-11T11:34:43.566Z,23.30
2023-02-11T11:37:30.363Z,23.10
2023-02-11T11:40:02.603Z,22.70
2023-02-11T11:42:38.208Z,22.60
2023-02-11T11:45:25.997Z,20.40
2023-02-11T11:48:05.309Z,21.60
2023-02-11T11:50:44.327Z,21.90
2023-02-11T11:53:16.554Z,23.50
2023-02-11T11:55:59.764Z,21.80
2023-02-11T11:58:30.929Z,25.10
2023-02-11T12:00:57.686Z,23.50
2023-02-11T12:03:36.710Z,22.30
2023-02-11T12:06:03.719Z,22.10
2023-02-11T12:08:43.508Z,19.50
2023-02-11T12:13:59.257Z,20.80
2023-02-11T12:16:49.365Z,26.10
2023-02-11T12:19:44.121Z,21.60
2023-02-11T12:22:38.720Z,23.00
2023-02-11T12:25:19.429Z,24.90
2023-02-11T12:28:04.955Z,26.50
2023-02-11T12:30:34.738Z,24.70
2023-02-11T12:35:56.820Z,26.50
2023-02-11T12:38:52.848Z,25.80
2023-02-11T12:41:52.115Z,26.50
2023-02-11T12:44:56.471Z,26.80
2023-02-11T12:47:39.765Z,24.40
2023-02-11T12:50:30.330Z,31.70
2023-02-11T12:53:26.947Z,28.30
2023-02-11T12:56:05.433Z,24.80
2023-02-11T12:58:44.971Z,28.40
2023-02-11T13:01:18.357Z,28.40
2023-02-11T13:04:40.760Z,26.60
2023-02-11T13:07:19.902Z,24.00
2023-02-11T13:09:55.665Z,24.10
2023-02-11T13:12:38.146Z,24.90
2023-02-11T13:15:13.056Z,24.30
2023-02-11T13:18:01.246Z,30.30
2023-02-11T13:20:54.201Z,24.30
2023-02-11T13:23:34.813Z,24.80
2023-02-11T13:26:21.636Z,28.00
2023-02-11T13:29:06.977Z,26.10
2023-02-11T13:31:33.794Z,22.00
2023-02-11T13:34:01.137Z,27.30
2023-02-11T13:36:33.556Z,29.30
2023-02-11T13:39:03.760Z,28.00
2023-02-11T13:41:30.455Z,24.00
2023-02-11T13:44:04.940Z,25.10
2023-02-11T13:46:49.927Z,25.00
2023-02-11T13:49:33.523Z,25.10
2023-02-11T13:52:03.045Z,26.20
2023-02-11T13:54:38.309Z,30.10
2023-02-11T13:57:30.780Z,27.10
2023-02-11T14:00:02.281Z,29.10
2023-02-11T14:02:48.176Z,23.80
2023-02-11T14:05:40.984Z,28.00
2023-02-11T14:08:21.728Z,27.30
2023-02-11T14:10:51.327Z,26.00
2023-02-11T14:15:49.205Z,23.70
2023-02-11T14:18:43.968Z,25.60
2023-02-11T14:21:17.777Z,26.70
2023-02-11T14:23:46.265Z,26.30
2023-02-11T14:26:22.118Z,26.80
2023-02-11T14:29:14.763Z,28.60
2023-02-11T14:31:49.538Z,26.70
2023-02-11T14:34:39.484Z,25.20
2023-02-11T14:39:52.884Z,22.60
2023-02-11T14:42:22.774Z,24.00
2023-02-11T14:47:23.564Z,26.50
2023-02-11T14:49:50.820Z,29.70
2023-02-11T14:52:28.709Z,28.20
2023-02-11T14:55:17.799Z,28.10
2023-02-11T14:57:45.988Z,28.10
2023-02-11T15:00:20.311Z,30.80
2023-02-11T15:02:47.772Z,26.60
2023-02-11T15:05:29.230Z,29.40
2023-02-11T15:08:02.091Z,28.40
2023-02-11T15:10:36.243Z,25.50
2023-02-11T15:13:04.994Z,26.50
2023-02-11T15:15:33.470Z,29.00
2023-02-11T15:18:03.003Z,31.80
2023-02-11T15:20:32.775Z,27.10
2023-02-11T15:23:03.156Z,27.50
2023-02-11T15:25:32.381Z,33.20
2023-02-11T15:28:01.049Z,31.00
2023-02-11T15:30:32.139Z,35.30
2023-02-11T15:33:03.219Z,32.50
2023-02-11T15:35:35.255Z,34.70
2023-02-11T15:38:02.284Z,33.60
2023-02-11T15:40:34.795Z,38.50
2023-02-11T15:43:04.345Z,38.90
2023-02-11T15:45:35.121Z,43.40
2023-02-11T15:48:15.765Z,46.30
2023-02-11T15:50:49.239Z,44.10
2023-02-11T15:53:30.691Z,43.50
2023-02-11T15:56:17.327Z,39.00
2023-02-11T15:58:47.858Z,44.50
2023-02-11T16:01:15.062Z,39.70
2023-02-11T16:03:43.509Z,39.50
2023-02-11T16:06:17.997Z,37.30
2023-02-11T16:08:57.535Z,37.50
2023-02-11T16:11:31.929Z,38.90
2023-02-11T16:14:00.731Z,37.30
2023-02-11T16:16:34.061Z,36.30
2023-02-11T16:19:06.072Z,33.50
2023-02-11T16:21:45.510Z,36.00
2023-02-11T16:24:28.076Z,35.30
2023-02-11T16:27:00.771Z,39.40
2023-02-11T16:29:30.411Z,41.30
2023-02-11T16:32:21.656Z,40.60
2023-02-11T16:34:49.242Z,41.50
2023-02-11T16:37:16.774Z,43.40
2023-02-11T16:39:43.739Z,45.60
2023-02-11T16:42:12.306Z,43.90
2023-02-11T16:44:40.611Z,37.80
2023-02-11T16:47:15.070Z,39.90
2023-02-11T16:49:43.052Z,39.40
2023-02-11T16:52:14.732Z,39.20
2023-02-11T16:54:42.277Z,38.60
2023-02-11T16:57:18.294Z,34.50
2023-02-11T16:59:45.810Z,36.30
2023-02-11T17:02:25.596Z,36.00
2023-02-11T17:04:54.196Z,34.40
2023-02-11T17:07:21.081Z,37.80
2023-02-11T17:09:47.822Z,35.60
2023-02-11T17:12:14.761Z,36.30
2023-02-11T17:14:41.479Z,36.30
2023-02-11T17:17:09.921Z,45.80
2023-02-11T17:19:37.833Z,44.20
2023-02-11T17:22:05.122Z,43.20
2023-02-11T17:24:32.209Z,38.60
2023-02-11T17:26:59.229Z,48.00
2023-02-11T17:29:26.431Z,48.80
2023-02-11T17:31:54.204Z,45.30
2023-02-11T17:34:22.546Z,40.80
2023-02-11T17:36:49.959Z,42.10
2023-02-11T17:39:16.799Z,36.90
2023-02-11T17:41:43.660Z,37.70
2023-02-11T17:44:16.403Z,35.10
2023-02-11T17:46:43.857Z,35.20
2023-02-11T17:49:12.202Z,35.80
2023-02-11T17:51:40.359Z,40.30
2023-02-11T17:54:11.178Z,43.10
2023-02-11T17:56:38.545Z,38.40
2023-02-11T17:59:08.469Z,37.00
2023-02-11T18:01:37.331Z,34.10
2023-02-11T18:04:05.137Z,36.10
2023-02-11T18:06:33.895Z,35.80
2023-02-11T18:09:02.615Z,37.50
2023-02-11T18:11:30.811Z,30.70
2023-02-11T18:14:02.598Z,32.90
2023-02-11T18:16:30.663Z,36.00
2023-02-11T18:18:58.983Z,33.80
2023-02-11T18:21:26.406Z,41.80
2023-02-11T18:23:53.777Z,36.70
2023-02-11T18:26:22.210Z,30.70
2023-02-11T18:28:49.071Z,30.50
2023-02-11T18:31:16.046Z,32.30
2023-02-11T18:33:43.756Z,31.00
2023-02-11T18:36:13.830Z,30.30
2023-02-11T18:38:41.988Z,29.00
2023-02-11T18:41:08.808Z,31.80
2023-02-11T18:43:36.376Z,32.30
2023-02-11T18:46:07.798Z,29.30
2023-02-11T18:48:35.120Z,33.80
2023-02-11T18:51:02.059Z,34.70
2023-02-11T18:53:28.778Z,31.50
2023-02-11T18:55:55.829Z,31.70
2023-02-11T18:58:22.652Z,32.60
2023-02-11T19:00:50.030Z,30.20
2023-02-11T19:03:17.326Z,33.90
2023-02-11T19:05:49.795Z,29.00
2023-02-11T19:08:17.496Z,30.50
2023-02-11T19:10:47.016Z,32.90
2023-02-11T19:13:14.418Z,32.50
2023-02-11T19:15:45.663Z,33.90
2023-02-11T19:18:14.331Z,29.40
2023-02-11T19:20:43.228Z,27.60
2023-02-11T19:23:11.014Z,30.40
2023-02-11T19:25:44.533Z,30.00
2023-02-11T19:28:11.377Z,32.20
2023-02-11T19:30:38.346Z,29.90
2023-02-11T19:33:05.582Z,30.90
2023-02-11T19:35:36.278Z,36.60
2023-02-11T19:40:31.591Z,30.90
2023-02-11T19:42:58.604Z,33.10
2023-02-11T19:45:27.047Z,33.80
2023-02-11T19:47:57.736Z,30.10
2023-02-11T19:50:25.186Z,29.80
2023-02-11T19:52:51.982Z,32.10
2023-02-11T19:55:18.822Z,31.20
2023-02-11T19:57:45.688Z,30.60
2023-02-11T20:00:13.032Z,30.50
2023-02-11T20:02:40.669Z,32.00
2023-02-11T20:05:07.778Z,30.10
2023-02-11T20:07:35.037Z,31.30
2023-02-11T20:10:02.119Z,31.80
2023-02-11T20:12:28.943Z,28.30
2023-02-11T20:14:55.764Z,33.10
2023-02-11T20:17:22.546Z,29.80
2023-02-11T20:19:49.229Z,32.50
2023-02-11T20:22:16.083Z,31.60
2023-02-11T20:24:42.910Z,30.90
2023-02-11T20:27:11.536Z,31.80
2023-02-11T20:29:39.380Z,32.20
2023-02-11T20:32:07.673Z,32.40
2023-02-11T20:34:34.806Z,31.50
2023-02-11T20:37:02.284Z,28.20
2023-02-11T20:39:30.226Z,31.90
2023-02-11T20:41:58.225Z,31.10
2023-02-11T20:44:25.400Z,32.40
2023-02-11T20:46:54.450Z,34.60
2023-02-11T20:49:24.097Z,36.20
2023-02-11T20:51:54.017Z,30.80
2023-02-11T20:54:22.455Z,33.10
2023-02-11T20:56:51.312Z,33.80
2023-02-11T20:59:19.369Z,32.20
2023-02-11T21:01:49.171Z,33.80
2023-02-11T21:04:19.949Z,33.60
2023-02-11T21:06:49.329Z,34.60
2023-02-11T21:09:22.162Z,33.40
2023-02-11T21:11:51.572Z,33.80
2023-02-11T21:14:19.138Z,33.70
2023-02-11T21:16:47.423Z,34.00
2023-02-11T21:19:14.655Z,35.30
2023-02-11T21:21:41.942Z,37.70
2023-02-11T21:24:10.255Z,38.00
2023-02-11T21:26:37.533Z,34.50
2023-02-11T21:29:06.190Z,38.30
2023-02-11T21:31:34.463Z,38.90
2023-02-11T21:34:01.823Z,38.00
2023-02-11T21:36:30.131Z,39.30
2023-02-11T21:38:57.032Z,42.10
2023-02-11T21:41:25.081Z,38.80
2023-02-11T21:43:52.884Z,41.20
2023-02-11T21:46:21.050Z,44.30
2023-02-11T21:48:49.017Z,42.60
2023-02-11T21:51:19.137Z,41.00
2023-02-11T21:53:46.244Z,40.50
2023-02-11T21:56:16.039Z,39.90
2023-02-11T22:01:21.566Z,39.00
2023-02-11T22:03:48.499Z,43.10
2023-02-11T22:06:21.335Z,43.20
2023-02-11T22:08:49.736Z,44.80
2023-02-11T22:11:17.053Z,44.20
2023-02-11T22:13:44.681Z,42.20
2023-02-11T22:16:14.792Z,42.60
2023-02-11T22:18:42.289Z,43.50
2023-02-11T22:21:17.110Z,47.20
2023-02-11T22:23:44.311Z,45.60
2023-02-11T22:26:15.023Z,48.60
2023-02-11T22:28:42.858Z,43.80
2023-02-11T22:31:18.010Z,46.20
2023-02-11T22:33:45.452Z,45.70
2023-02-11T22:36:34.700Z,44.20
2023-02-11T22:39:09.187Z,45.30
2023-02-11T22:41:35.915Z,47.10
2023-02-11T22:44:02.764Z,45.10
2023-02-11T22:46:30.035Z,43.10
2023-02-11T22:48:56.972Z,46.00
2023-02-11T22:51:26.937Z,47.40
2023-02-11T22:53:56.100Z,46.80
2023-02-11T22:56:24.420Z,48.30
2023-02-11T22:58:52.249Z,44.40
2023-02-11T23:01:19.949Z,48.90
2023-02-11T23:03:46.824Z,51.70
2023-02-11T23:06:13.673Z,51.10
2023-02-11T23:08:42.992Z,46.60
2023-02-11T23:11:17.071Z,45.20
2023-02-11T23:13:45.608Z,41.40
2023-02-11T23:16:17.389Z,43.00
2023-02-11T23:18:46.457Z,45.00
2023-02-11T23:21:29.227Z,48.40
2023-02-11T23:23:58.689Z,42.10
2023-02-11T23:26:26.423Z,41.20
2023-02-11T23:28:53.510Z,47.50
2023-02-11T23:31:23.880Z,43.40
2023-02-11T23:33:51.273Z,48.80
2023-02-11T23:36:19.527Z,50.70
2023-02-11T23:38:46.705Z,47.80
2023-02-11T23:41:14.272Z,44.60
2023-02-11T23:43:41.433Z,48.90
2023-02-11T23:46:09.380Z,42.50
2023-02-11T23:48:36.683Z,48.20
2023-02-11T23:51:04.405Z,43.60
2023-02-11T23:53:31.185Z,43.80
2023-02-11T23:55:58.476Z,39.80
2023-02-11T23:58:25.274Z,41.90
